Latest Coastal Weather Observations for Robe Airport

IDS60701

Issued at 8:35 am CDT Sunday 26 October 2014 (issued every 10 minutes, with the page automatically refreshed every 10 minutes)

About coastal observations | Map of coastal stations | Coastal observations for SA | Marine services | Other Formats
Station Details ID: 026105 Name: ROBE AIRFIELD Lat: -37.18 Lon: 139.81 Height: 3.0 m
Data from the previous 72 hours. | See also: Recent months at Robe Airport
Date/Time
CDT
Temp

°C
Wind Pressure Rain
since 9am
mm
Weather Cloud Vis
km
Sea
Height
m
Swell
Dir
 
Speed
knots
Gust
knots
hPa Trend Height
m
Period
s
Dir
26/08:30am 11.5 E 5 6 1013.6 - 0.0 - - - - - - -
26/08:00am 11.1 E 3 5 1014.1 - 0.0 - - - - - - -
26/07:30am 10.2 E 2 5 1014.0 - 0.0 - - - - - - -
26/07:00am 9.3 E 3 5 1013.6 - 0.0 - - - - - - -
26/06:30am 9.0 E 4 7 1013.2 - 0.0 - - - - - - -
26/06:00am 8.2 ESE 4 6 1012.8 - 0.0 - - - - - - -
26/05:30am 8.3 SE 3 4 1013.2 - 0.0 - - - - - - -
26/05:00am 8.9 SE 4 5 1013.1 - 0.0 - - - - - - -
26/04:30am 8.8 ESE 4 5 1013.1 - 0.0 - - - - - - -
26/04:00am 9.3 E 5 6 1013.2 - 0.0 - - - - - - -
26/03:30am 9.6 SSE 4 6 1013.9 - 0.0 - - - - - - -
26/03:00am 9.5 S 4 5 1014.3 - 0.0 - - - - - - -
26/02:30am 9.4 SE 4 5 1013.7 - 0.0 - - - - - - -
26/02:00am 9.2 S 5 5 1014.4 - 0.0 - - - - - - -
26/01:30am 9.9 S 3 3 1014.8 - 0.0 - - - - - - -
26/01:00am 10.2 S 5 6 1015.4 - 0.0 - - - - - - -
26/12:30am 10.9 SSE 3 4 1015.6 - 0.0 - - - - - - -
26/12:00am 11.3 SE 4 5 1015.6 - 0.0 - - - - - - -
 
Date/Time
CDT
Temp

°C
Wind Pressure Rain
since 9am
mm
Weather Cloud Vis
km
Sea
Height
m
Swell
Dir
 
Speed
knots
Gust
knots
hPa Trend Height
m
Period
s
Dir
25/11:30pm 11.6 SSE 4 7 1015.7 - 0.0 - - - - - - -
25/11:00pm 12.4 SE 6 9 1015.8 - 0.0 - - - - - - -
25/10:30pm 11.9 SSE 5 6 1016.2 - 0.0 - - - - - - -
25/10:00pm 12.3 S 6 9 1016.3 - 0.0 - - - - - - -
25/09:30pm 12.3 S 7 9 1016.5 - 0.0 - - - - - - -
25/09:00pm 11.9 S 6 7 1016.4 - 0.0 - - - - - - -
25/08:30pm 12.0 S 6 8 1016.3 - 0.0 - - - - - - -
25/08:00pm 12.7 S 7 9 1016.4 - 0.0 - - - - - - -
25/07:30pm 13.4 S 9 11 1016.3 - 0.0 - - - - - - -
25/07:00pm 14.4 S 11 14 1016.2 - 0.0 - - - - - - -
25/06:30pm 15.1 S 11 15 1015.8 - 0.0 - - - - - - -
25/06:00pm 15.7 S 11 14 1015.8 - 0.0 - - - - - - -
25/05:30pm 15.7 S 14 19 1015.6 - 0.0 - - - - - - -
25/05:00pm 16.4 S 13 19 1016.1 - 0.0 - - - - - - -
25/04:30pm 17.3 S 11 16 1015.7 - 0.0 - - - - - - -
25/04:00pm 17.7 S 11 15 1015.8 - 0.0 - - - - - - -
25/03:30pm 17.6 S 11 15 1016.1 - 0.0 - - - - - - -
25/03:00pm 18.0 S 11 15 1016.2 - 0.0 - - - - - - -
25/02:30pm 16.9 S 12 15 1016.3 - 0.0 - - - - - - -
25/02:00pm 18.2 S 13 19 1016.9 - 0.0 - - - - - - -
25/01:30pm 17.3 SSW 12 18 1016.7 - 0.0 - - - - - - -
25/01:00pm 17.7 S 12 16 1016.8 - 0.0 - - - - - - -
25/12:30pm 17.1 SSW 13 18 1017.0 - 0.0 - - - - - - -
25/12:00pm 17.5 SSW 10 14 1017.3 - 0.0 - - - - - - -
25/11:30am 17.4 S 9 13 1017.5 - 0.0 - - - - - - -
25/11:00am 18.3 S 6 9 1017.8 - 0.0 - - - - - - -
25/10:30am 17.1 S 6 9 1017.9 - 0.0 - - - - - - -
25/10:00am 15.7 S 6 10 1018.0 - 0.0 - - - - - - -
25/09:30am 15.6 SSE 5 9 1018.0 - 0.0 - - - - - - -
25/09:00am 14.8 ESE 5 7 1017.8 - 0.0 - - - - - - -
25/08:30am 14.3 SE 6 8 1017.5 - 0.0 - - - - - - -
25/08:00am 14.3 SE 8 10 1017.5 - 0.0 - - - - - - -
25/07:30am 14.2 ESE 5 8 1017.5 - 0.0 - - - - - - -
25/07:00am 13.8 SE 5 8 1017.6 - 0.0 - - - - - - -
25/06:30am 13.6 ESE 5 8 1017.2 - 0.0 - - - - - - -
25/06:00am 13.7 ESE 5 9 1016.7 - 0.0 - - - - - - -
25/05:30am 14.0 S 7 11 1016.5 - 0.0 - - - - - - -
25/05:00am 14.2 SE 6 9 1016.1 - 0.0 - - - - - - -
25/04:30am 14.2 SSE 5 9 1016.0 - 0.0 - - - - - - -
25/04:00am 14.2 SSE 3 6 1016.1 - 0.0 - - - - - - -
25/03:30am 14.3 SE 5 9 1016.0 - 0.0 - - - - - - -
25/03:00am 14.2 ESE 5 8 1016.1 - 0.0 - - - - - - -
25/02:30am 14.2 SSE 5 9 1016.1 - 0.0 - - - - - - -
25/02:00am 14.2 S 9 12 1016.3 - 0.0 - - - - - - -
25/01:30am 14.4 SSE 8 11 1016.4 - 0.0 - - - - - - -
25/01:00am 14.3 SSE 8 13 1016.6 - 0.0 - - - - - - -
25/12:30am 14.2 S 8 13 1017.0 - 0.0 - - - - - - -
25/12:00am 14.2 S 9 13 1016.8 - 0.0 - - - - - - -
 
Date/Time
CDT
Temp

°C
Wind Pressure Rain
since 9am
mm
Weather Cloud Vis
km
Sea
Height
m
Swell
Dir
 
Speed
knots
Gust
knots
hPa Trend Height
m
Period
s
Dir
24/11:30pm 14.5 SSE 8 13 1016.8 - 0.0 - - - - - - -
24/11:00pm 14.5 S 8 11 1016.9 - 0.0 - - - - - - -
24/10:30pm 14.1 S 7 9 1016.9 - 0.0 - - - - - - -
24/10:00pm 13.5 SSE 6 7 1016.9 - 0.0 - - - - - - -
24/09:30pm 12.0 S 4 5 1016.7 - 0.0 - - - - - - -
24/09:00pm 12.3 S 3 4 1016.5 - 0.0 - - - - - - -
24/08:30pm 12.8 S 4 5 1016.0 - 0.0 - - - - - - -
24/08:00pm 13.4 S 4 5 1015.6 - 0.0 - - - - - - -
24/07:30pm 14.6 S 5 7 1015.4 - 0.0 - - - - - - -
24/07:00pm 15.6 SSW 6 8 1015.1 - 0.0 - - - - - - -
24/06:30pm 16.4 SSW 7 10 1014.8 - 0.0 - - - - - - -
24/06:00pm 16.3 SSW 8 11 1014.8 - 0.0 - - - - - - -
24/05:30pm 16.9 SW 7 11 1014.3 - 0.0 - - - - - - -
24/05:00pm 17.3 WSW 7 11 1014.1 - 0.0 - - - - - - -
24/04:30pm 17.6 WSW 8 12 1014.0 - 0.0 - - - - - - -
24/04:00pm 17.3 WSW 7 13 1014.0 - 0.0 - - - - - - -
24/03:30pm 17.2 WSW 8 13 1014.0 - 0.0 - - - - - - -
24/03:00pm 18.2 W 7 10 1014.0 - 0.0 - - - - - - -
24/02:30pm 18.6 NW 8 10 1013.8 - 0.0 - - - - - - -
24/02:00pm 17.4 NW 8 11 1013.9 - 0.0 - - - - - - -
24/01:30pm 17.4 NW 9 12 1014.0 - 0.0 - - - - - - -
24/01:00pm 18.0 NW 9 11 1013.9 - 0.0 - - - - - - -
24/12:30pm 17.5 NNW 9 14 1014.2 - 0.0 - - - - - - -
24/12:00pm 17.7 NW 9 13 1014.3 - 0.0 - - - - - - -
24/11:30am 17.6 NW 8 11 1014.2 - 0.0 - - - - - - -
24/11:00am 17.4 WNW 6 9 1014.3 - 0.0 - - - - - - -
24/10:30am 16.2 W 9 15 1014.6 - 0.0 - - - - - - -
24/10:00am 16.0 WNW 8 13 1014.3 - 0.0 - - - - - - -
24/09:30am 14.5 WNW 9 13 1014.4 - 0.0 - - - - - - -
24/09:00am 14.0 W 8 13 1014.2 - 0.0 - - - - - - -
24/08:30am 14.0 NW 10 16 1014.2 - 0.0 - - - - - - -
24/08:00am 14.0 WNW 5 10 1013.3 - 0.0 - - - - - - -
24/07:30am 14.1 WNW 4 6 1012.6 - 0.0 - - - - - - -
24/07:00am 13.7 W 3 6 1012.1 - 0.0 - - - - - - -
24/06:30am 13.7 W 5 7 1012.0 - 0.0 - - - - - - -
24/06:00am 13.7 W 3 5 1012.1 - 0.0 - - - - - - -
24/05:30am 10.3 NNW 2 4 1012.0 - 0.0 - - - - - - -
24/05:00am 8.4 CALM 0 0 1011.8 - 0.0 - - - - - - -
24/04:30am 6.5 CALM 0 0 1011.6 - 0.0 - - - - - - -
24/04:00am 6.8 CALM 0 1 1011.6 - 0.0 - - - - - - -
24/03:30am 6.5 N 2 3 1011.8 - 0.0 - - - - - - -
24/03:00am 6.9 ENE 1 3 1012.1 - 0.0 - - - - - - -
24/02:30am 7.6 CALM 0 0 1012.0 - 0.0 - - - - - - -
24/02:00am 7.7 CALM 0 0 1012.5 - 0.0 - - - - - - -
24/01:30am 8.0 CALM 0 0 1013.1 - 0.0 - - - - - - -
24/01:00am 9.6 CALM 0 0 1013.5 - 0.0 - - - - - - -
24/12:30am 11.1 SE 1 2 1013.7 - 0.0 - - - - - - -
24/12:00am 12.0 SE 2 3 1013.9 - 0.0 - - - - - - -
 
Date/Time
CDT
Temp

°C
Wind Pressure Rain
since 9am
mm
Weather Cloud Vis
km
Sea
Height
m
Swell
Dir
 
Speed
knots
Gust
knots
hPa Trend Height
m
Period
s
Dir
23/11:30pm 12.7 SE 4 5 1014.1 - 0.0 - - - - - - -
23/11:00pm 13.1 SE 4 6 1014.3 - 0.0 - - - - - - -
23/10:30pm 13.6 SSE 6 8 1014.6 - 0.0 - - - - - - -
23/10:00pm 14.0 SSE 7 9 1014.7 - 0.0 - - - - - - -
23/09:30pm 13.5 S 5 8 1014.8 - 0.0 - - - - - - -
23/09:00pm 13.5 S 6 8 1014.4 - 0.0 - - - - - - -
23/08:30pm 13.8 S 7 9 1014.4 - 0.0 - - - - - - -
23/08:00pm 14.4 S 7 9 1014.4 - 0.0 - - - - - - -
23/07:30pm 15.3 S 8 10 1014.1 - 0.0 - - - - - - -
23/07:00pm 15.8 S 10 13 1014.4 - 0.0 - - - - - - -
23/06:30pm 16.5 S 10 15 1014.2 - 0.0 - - - - - - -
23/06:00pm 17.3 S 10 14 1014.2 - 0.0 - - - - - - -
23/05:30pm 18.4 S 11 16 1014.2 - 0.0 - - - - - - -
23/05:00pm 18.7 S 13 17 1014.5 - 0.0 - - - - - - -
23/04:30pm 19.3 S 13 17 1014.6 - 0.0 - - - - - - -
23/04:00pm 20.3 S 13 18 1014.6 - 0.0 - - - - - - -
23/03:30pm 21.1 S 12 16 1014.6 - 0.0 - - - - - - -
23/03:00pm 21.2 SSE 11 16 1014.9 - 0.0 - - - - - - -
23/02:30pm 21.1 S 12 18 1015.3 - 0.0 - - - - - - -
23/02:00pm 21.9 S 11 15 1015.7 - 0.0 - - - - - - -
23/01:30pm 21.8 S 10 17 1015.7 - 0.0 - - - - - - -
23/01:00pm 20.6 SSE 9 13 1016.3 - 0.0 - - - - - - -
23/12:30pm 20.1 ESE 11 15 1017.0 - 0.0 - - - - - - -
23/12:00pm 19.4 SE 11 16 1017.3 - 0.0 - - - - - - -
23/11:30am 18.7 SE 10 16 1017.8 - 0.0 - - - - - - -
23/11:00am 18.4 ESE 11 16 1018.3 - 0.0 - - - - - - -
23/10:30am 17.6 ESE 12 17 1018.5 - 0.0 - - - - - - -
23/10:00am 16.3 SE 11 16 1018.8 - 0.0 - - - - - - -
23/09:30am 15.4 SE 12 18 1018.8 - 0.0 - - - - - - -
23/09:00am 14.8 SE 13 18 1019.0 - 0.0 - - - - - - -

Other Formats:

Comma delimited format used in spreadsheet applications
http://www.bom.gov.au/fwo/IDS60701/IDS60701.95816.axf

JavaScript Object Notation format (JSON) in row-major order
http://www.bom.gov.au/fwo/IDS60701/IDS60701.95816.json